sensor_id;sensor_type;location;lat;lon;timestamp;temperature;humidity
29237;DHT22;16266;50.866;4.398;2023-03-14T00:02:10;11.30;99.90
29237;DHT22;16266;50.866;4.398;2023-03-14T00:04:36;11.30;99.90
29237;DHT22;16266;50.866;4.398;2023-03-14T00:07:02;11.30;99.90
29237;DHT22;16266;50.866;4.398;2023-03-14T00:09:28;11.20;99.90
29237;DHT22;16266;50.866;4.398;2023-03-14T00:11:55;11.00;99.90
29237;DHT22;16266;50.866;4.398;2023-03-14T00:14:21;10.90;99.90
29237;DHT22;16266;50.866;4.398;2023-03-14T00:16:46;10.80;99.90
29237;DHT22;16266;50.866;4.398;2023-03-14T00:19:12;10.80;99.90
29237;DHT22;16266;50.866;4.398;2023-03-14T00:21:38;10.80;99.90
29237;DHT22;16266;50.866;4.398;2023-03-14T00:24:04;10.80;99.90
29237;DHT22;16266;50.866;4.398;2023-03-14T00:26:31;10.90;99.90
29237;DHT22;16266;50.866;4.398;2023-03-14T00:28:57;10.80;99.90
29237;DHT22;16266;50.866;4.398;2023-03-14T00:31:22;10.80;99.90
29237;DHT22;16266;50.866;4.398;2023-03-14T00:33:48;10.80;99.90
29237;DHT22;16266;50.866;4.398;2023-03-14T00:36:17;10.70;99.90
29237;DHT22;16266;50.866;4.398;2023-03-14T00:38:45;10.80;99.90
29237;DHT22;16266;50.866;4.398;2023-03-14T00:41:13;10.80;99.90
29237;DHT22;16266;50.866;4.398;2023-03-14T00:43:40;10.80;99.90
29237;DHT22;16266;50.866;4.398;2023-03-14T00:46:06;10.80;99.90
29237;DHT22;16266;50.866;4.398;2023-03-14T00:48:31;10.80;99.90
29237;DHT22;16266;50.866;4.398;2023-03-14T00:50:57;10.90;99.90
29237;DHT22;16266;50.866;4.398;2023-03-14T00:53:23;10.90;99.90
29237;DHT22;16266;50.866;4.398;2023-03-14T00:55:48;10.90;99.90
29237;DHT22;16266;50.866;4.398;2023-03-14T00:58:16;11.00;99.90
29237;DHT22;16266;50.866;4.398;2023-03-14T01:00:42;11.00;99.90
29237;DHT22;16266;50.866;4.398;2023-03-14T01:03:09;10.90;99.90
29237;DHT22;16266;50.866;4.398;2023-03-14T01:05:35;10.80;99.90
29237;DHT22;16266;50.866;4.398;2023-03-14T01:08:01;10.80;99.90
29237;DHT22;16266;50.866;4.398;2023-03-14T01:10:27;10.70;99.90
29237;DHT22;16266;50.866;4.398;2023-03-14T01:12:52;10.80;99.90
29237;DHT22;16266;50.866;4.398;2023-03-14T01:15:20;10.80;99.90
29237;DHT22;16266;50.866;4.398;2023-03-14T01:17:46;10.90;99.90
29237;DHT22;16266;50.866;4.398;2023-03-14T01:20:13;10.90;99.90
29237;DHT22;16266;50.866;4.398;2023-03-14T01:22:41;10.90;99.90
29237;DHT22;16266;50.866;4.398;2023-03-14T01:25:08;10.80;99.90
29237;DHT22;16266;50.866;4.398;2023-03-14T01:27:34;10.80;99.90
29237;DHT22;16266;50.866;4.398;2023-03-14T01:30:00;10.80;99.90
29237;DHT22;16266;50.866;4.398;2023-03-14T01:32:26;10.80;99.90
29237;DHT22;16266;50.866;4.398;2023-03-14T01:34:51;10.80;99.90
29237;DHT22;16266;50.866;4.398;2023-03-14T01:37:17;10.80;99.90
29237;DHT22;16266;50.866;4.398;2023-03-14T01:39:43;10.60;99.90
29237;DHT22;16266;50.866;4.398;2023-03-14T01:42:09;10.50;99.90
29237;DHT22;16266;50.866;4.398;2023-03-14T01:47:15;10.30;99.90
29237;DHT22;16266;50.866;4.398;2023-03-14T01:49:41;10.40;99.90
29237;DHT22;16266;50.866;4.398;2023-03-14T01:52:10;10.40;99.90
29237;DHT22;16266;50.866;4.398;2023-03-14T01:54:40;10.40;99.90
29237;DHT22;16266;50.866;4.398;2023-03-14T01:57:13;10.50;99.90
29237;DHT22;16266;50.866;4.398;2023-03-14T01:59:43;10.50;99.90
29237;DHT22;16266;50.866;4.398;2023-03-14T02:02:12;10.60;99.90
29237;DHT22;16266;50.866;4.398;2023-03-14T02:04:39;10.60;99.90
29237;DHT22;16266;50.866;4.398;2023-03-14T02:09:34;10.50;99.90
29237;DHT22;16266;50.866;4.398;2023-03-14T02:12:00;10.40;99.90
29237;DHT22;16266;50.866;4.398;2023-03-14T02:14:32;10.40;99.90
29237;DHT22;16266;50.866;4.398;2023-03-14T02:16:59;10.30;99.90
29237;DHT22;16266;50.866;4.398;2023-03-14T02:22:13;10.10;99.90
29237;DHT22;16266;50.866;4.398;2023-03-14T02:29:36;10.00;99.90
29237;DHT22;16266;50.866;4.398;2023-03-14T02:32:03;10.00;99.90
29237;DHT22;16266;50.866;4.398;2023-03-14T02:34:29;10.00;99.90
29237;DHT22;16266;50.866;4.398;2023-03-14T02:36:57;10.10;99.90
29237;DHT22;16266;50.866;4.398;2023-03-14T02:39:33;10.00;99.90
29237;DHT22;16266;50.866;4.398;2023-03-14T02:42:00;10.00;99.90
29237;DHT22;16266;50.866;4.398;2023-03-14T02:44:26;10.00;99.90
29237;DHT22;16266;50.866;4.398;2023-03-14T02:46:52;10.00;99.90
29237;DHT22;16266;50.866;4.398;2023-03-14T02:49:18;10.00;99.90
29237;DHT22;16266;50.866;4.398;2023-03-14T02:51:45;10.00;99.90
29237;DHT22;16266;50.866;4.398;2023-03-14T02:54:11;10.00;99.90
29237;DHT22;16266;50.866;4.398;2023-03-14T02:56:37;9.90;99.90
29237;DHT22;16266;50.866;4.398;2023-03-14T02:59:03;9.90;99.90
29237;DHT22;16266;50.866;4.398;2023-03-14T03:01:29;10.00;99.90
29237;DHT22;16266;50.866;4.398;2023-03-14T03:03:55;10.10;99.90
29237;DHT22;16266;50.866;4.398;2023-03-14T03:06:20;10.10;99.90
29237;DHT22;16266;50.866;4.398;2023-03-14T03:08:46;10.20;99.90
29237;DHT22;16266;50.866;4.398;2023-03-14T03:11:12;10.20;99.90
29237;DHT22;16266;50.866;4.398;2023-03-14T03:13:37;10.30;99.90
29237;DHT22;16266;50.866;4.398;2023-03-14T03:16:04;10.30;99.90
29237;DHT22;16266;50.866;4.398;2023-03-14T03:18:30;10.30;99.90
29237;DHT22;16266;50.866;4.398;2023-03-14T03:20:59;10.20;99.90
29237;DHT22;16266;50.866;4.398;2023-03-14T03:23:24;10.30;99.90
29237;DHT22;16266;50.866;4.398;2023-03-14T03:25:50;10.30;99.90
29237;DHT22;16266;50.866;4.398;2023-03-14T03:28:17;10.30;99.90
29237;DHT22;16266;50.866;4.398;2023-03-14T03:30:43;10.30;99.90
29237;DHT22;16266;50.866;4.398;2023-03-14T03:33:10;10.30;99.90
29237;DHT22;16266;50.866;4.398;2023-03-14T03:35:45;10.30;99.90
29237;DHT22;16266;50.866;4.398;2023-03-14T03:38:11;10.30;99.90
29237;DHT22;16266;50.866;4.398;2023-03-14T03:40:37;10.30;99.90
29237;DHT22;16266;50.866;4.398;2023-03-14T03:43:03;10.30;99.90
29237;DHT22;16266;50.866;4.398;2023-03-14T03:45:29;10.40;99.90
29237;DHT22;16266;50.866;4.398;2023-03-14T03:47:55;10.30;99.90
29237;DHT22;16266;50.866;4.398;2023-03-14T03:50:21;10.40;99.90
29237;DHT22;16266;50.866;4.398;2023-03-14T03:52:46;10.40;99.90
29237;DHT22;16266;50.866;4.398;2023-03-14T03:55:12;10.40;99.90
29237;DHT22;16266;50.866;4.398;2023-03-14T03:57:37;10.30;99.90
29237;DHT22;16266;50.866;4.398;2023-03-14T04:00:04;10.30;99.90
29237;DHT22;16266;50.866;4.398;2023-03-14T04:02:31;10.30;99.90
29237;DHT22;16266;50.866;4.398;2023-03-14T04:04:56;10.30;99.90
29237;DHT22;16266;50.866;4.398;2023-03-14T04:07:22;10.40;99.90
29237;DHT22;16266;50.866;4.398;2023-03-14T04:09:47;10.40;99.90
29237;DHT22;16266;50.866;4.398;2023-03-14T04:12:13;10.40;99.90
29237;DHT22;16266;50.866;4.398;2023-03-14T04:14:38;10.40;99.90
29237;DHT22;16266;50.866;4.398;2023-03-14T04:17:06;10.30;99.90
29237;DHT22;16266;50.866;4.398;2023-03-14T04:19:32;10.30;99.90
29237;DHT22;16266;50.866;4.398;2023-03-14T04:21:58;10.50;99.90
29237;DHT22;16266;50.866;4.398;2023-03-14T04:24:23;10.40;99.90
29237;DHT22;16266;50.866;4.398;2023-03-14T04:26:49;10.40;99.90
29237;DHT22;16266;50.866;4.398;2023-03-14T04:29:15;10.40;99.90
29237;DHT22;16266;50.866;4.398;2023-03-14T04:31:40;10.40;99.90
29237;DHT22;16266;50.866;4.398;2023-03-14T04:34:06;10.40;99.90
29237;DHT22;16266;50.866;4.398;2023-03-14T04:36:31;10.40;99.90
29237;DHT22;16266;50.866;4.398;2023-03-14T04:38:57;10.40;99.90
29237;DHT22;16266;50.866;4.398;2023-03-14T04:41:23;10.50;99.90
29237;DHT22;16266;50.866;4.398;2023-03-14T04:43:48;10.60;99.90
29237;DHT22;16266;50.866;4.398;2023-03-14T04:46:14;10.60;99.90
29237;DHT22;16266;50.866;4.398;2023-03-14T04:48:40;10.60;99.90
29237;DHT22;16266;50.866;4.398;2023-03-14T04:51:05;10.60;99.90
29237;DHT22;16266;50.866;4.398;2023-03-14T04:53:31;10.60;99.90
29237;DHT22;16266;50.866;4.398;2023-03-14T04:55:57;10.60;99.90
29237;DHT22;16266;50.866;4.398;2023-03-14T04:58:23;10.60;99.90
29237;DHT22;16266;50.866;4.398;2023-03-14T05:00:49;10.60;99.90
29237;DHT22;16266;50.866;4.398;2023-03-14T05:03:16;10.60;99.90
29237;DHT22;16266;50.866;4.398;2023-03-14T05:05:42;10.60;99.90
29237;DHT22;16266;50.866;4.398;2023-03-14T05:08:08;10.60;99.90
29237;DHT22;16266;50.866;4.398;2023-03-14T05:10:34;10.60;99.90
29237;DHT22;16266;50.866;4.398;2023-03-14T05:13:00;10.70;99.90
29237;DHT22;16266;50.866;4.398;2023-03-14T05:15:26;10.70;99.90
29237;DHT22;16266;50.866;4.398;2023-03-14T05:17:51;10.70;99.90
29237;DHT22;16266;50.866;4.398;2023-03-14T05:20:18;10.70;99.90
29237;DHT22;16266;50.866;4.398;2023-03-14T05:22:44;10.70;99.90
29237;DHT22;16266;50.866;4.398;2023-03-14T05:25:09;10.70;99.90
29237;DHT22;16266;50.866;4.398;2023-03-14T05:27:35;10.70;99.90
29237;DHT22;16266;50.866;4.398;2023-03-14T05:30:02;10.70;99.90
29237;DHT22;16266;50.866;4.398;2023-03-14T05:32:28;10.70;99.90
29237;DHT22;16266;50.866;4.398;2023-03-14T05:34:54;10.70;99.90
29237;DHT22;16266;50.866;4.398;2023-03-14T05:37:23;10.70;99.90
29237;DHT22;16266;50.866;4.398;2023-03-14T05:39:49;10.70;99.90
29237;DHT22;16266;50.866;4.398;2023-03-14T05:42:15;10.70;99.90
29237;DHT22;16266;50.866;4.398;2023-03-14T05:44:40;10.70;99.90
29237;DHT22;16266;50.866;4.398;2023-03-14T05:47:06;10.60;99.90
29237;DHT22;16266;50.866;4.398;2023-03-14T05:49:31;10.60;99.90
29237;DHT22;16266;50.866;4.398;2023-03-14T05:51:57;10.60;99.90
29237;DHT22;16266;50.866;4.398;2023-03-14T05:54:23;10.60;99.90
29237;DHT22;16266;50.866;4.398;2023-03-14T05:56:48;10.60;99.90
29237;DHT22;16266;50.866;4.398;2023-03-14T05:59:14;10.60;99.90
29237;DHT22;16266;50.866;4.398;2023-03-14T06:01:40;10.60;99.90
29237;DHT22;16266;50.866;4.398;2023-03-14T06:04:05;10.60;99.90
29237;DHT22;16266;50.866;4.398;2023-03-14T06:06:31;10.60;99.90
29237;DHT22;16266;50.866;4.398;2023-03-14T06:08:57;10.70;99.90
29237;DHT22;16266;50.866;4.398;2023-03-14T06:11:22;10.60;99.90
29237;DHT22;16266;50.866;4.398;2023-03-14T06:13:48;10.60;99.90
29237;DHT22;16266;50.866;4.398;2023-03-14T06:16:14;10.60;99.90
29237;DHT22;16266;50.866;4.398;2023-03-14T06:18:39;10.60;99.90
29237;DHT22;16266;50.866;4.398;2023-03-14T06:21:05;10.60;99.90
29237;DHT22;16266;50.866;4.398;2023-03-14T06:23:31;10.70;99.90
29237;DHT22;16266;50.866;4.398;2023-03-14T06:25:57;10.70;99.90
29237;DHT22;16266;50.866;4.398;2023-03-14T06:28:23;10.70;99.90
29237;DHT22;16266;50.866;4.398;2023-03-14T06:30:49;10.60;99.90
29237;DHT22;16266;50.866;4.398;2023-03-14T06:33:14;10.60;99.90
29237;DHT22;16266;50.866;4.398;2023-03-14T06:35:40;10.60;99.90
29237;DHT22;16266;50.866;4.398;2023-03-14T06:38:05;10.50;99.90
29237;DHT22;16266;50.866;4.398;2023-03-14T06:40:31;10.60;99.90
29237;DHT22;16266;50.866;4.398;2023-03-14T06:42:57;10.60;99.90
29237;DHT22;16266;50.866;4.398;2023-03-14T06:45:22;10.60;99.90
29237;DHT22;16266;50.866;4.398;2023-03-14T06:47:48;10.60;99.90
29237;DHT22;16266;50.866;4.398;2023-03-14T06:50:14;10.60;99.90
29237;DHT22;16266;50.866;4.398;2023-03-14T06:52:40;10.20;99.90
29237;DHT22;16266;50.866;4.398;2023-03-14T06:55:13;9.80;99.90
29237;DHT22;16266;50.866;4.398;2023-03-14T06:57:39;9.70;99.90
29237;DHT22;16266;50.866;4.398;2023-03-14T07:00:06;9.60;99.90
29237;DHT22;16266;50.866;4.398;2023-03-14T07:02:31;9.50;99.90
29237;DHT22;16266;50.866;4.398;2023-03-14T07:04:57;9.40;99.90
29237;DHT22;16266;50.866;4.398;2023-03-14T07:07:23;9.40;99.90
29237;DHT22;16266;50.866;4.398;2023-03-14T07:09:48;9.20;99.90
29237;DHT22;16266;50.866;4.398;2023-03-14T07:12:14;9.10;99.90
29237;DHT22;16266;50.866;4.398;2023-03-14T07:14:39;8.90;99.90
29237;DHT22;16266;50.866;4.398;2023-03-14T07:17:05;8.80;99.90
29237;DHT22;16266;50.866;4.398;2023-03-14T07:19:31;8.70;99.90
29237;DHT22;16266;50.866;4.398;2023-03-14T07:21:56;8.50;99.90
29237;DHT22;16266;50.866;4.398;2023-03-14T07:24:22;8.40;99.90
29237;DHT22;16266;50.866;4.398;2023-03-14T07:26:48;8.30;99.90
29237;DHT22;16266;50.866;4.398;2023-03-14T07:29:14;8.20;99.90
29237;DHT22;16266;50.866;4.398;2023-03-14T07:31:39;8.20;99.90
29237;DHT22;16266;50.866;4.398;2023-03-14T07:34:05;8.30;99.90
29237;DHT22;16266;50.866;4.398;2023-03-14T07:36:30;8.30;99.90
29237;DHT22;16266;50.866;4.398;2023-03-14T07:38:56;8.30;99.90
29237;DHT22;16266;50.866;4.398;2023-03-14T07:41:22;8.30;99.90
29237;DHT22;16266;50.866;4.398;2023-03-14T07:43:48;8.30;99.90
29237;DHT22;16266;50.866;4.398;2023-03-14T07:46:14;8.20;99.90
29237;DHT22;16266;50.866;4.398;2023-03-14T07:48:40;8.20;99.90
29237;DHT22;16266;50.866;4.398;2023-03-14T07:51:06;8.20;99.90
29237;DHT22;16266;50.866;4.398;2023-03-14T07:53:32;8.30;99.90
29237;DHT22;16266;50.866;4.398;2023-03-14T07:55:58;8.40;99.90
29237;DHT22;16266;50.866;4.398;2023-03-14T07:58:23;8.40;99.90
29237;DHT22;16266;50.866;4.398;2023-03-14T08:00:50;8.50;99.90
29237;DHT22;16266;50.866;4.398;2023-03-14T08:03:17;8.60;99.90
29237;DHT22;16266;50.866;4.398;2023-03-14T08:05:43;8.60;99.90
29237;DHT22;16266;50.866;4.398;2023-03-14T08:08:09;8.50;99.90
29237;DHT22;16266;50.866;4.398;2023-03-14T08:10:35;8.50;99.90
29237;DHT22;16266;50.866;4.398;2023-03-14T08:13:01;8.60;99.90
29237;DHT22;16266;50.866;4.398;2023-03-14T08:15:29;8.50;99.90
29237;DHT22;16266;50.866;4.398;2023-03-14T08:17:55;8.60;99.90
29237;DHT22;16266;50.866;4.398;2023-03-14T08:20:22;8.60;99.90
29237;DHT22;16266;50.866;4.398;2023-03-14T08:22:48;8.60;99.90
29237;DHT22;16266;50.866;4.398;2023-03-14T08:25:15;8.70;99.90
29237;DHT22;16266;50.866;4.398;2023-03-14T08:27:41;8.80;99.90
29237;DHT22;16266;50.866;4.398;2023-03-14T08:30:12;8.70;99.90
29237;DHT22;16266;50.866;4.398;2023-03-14T08:32:38;8.70;99.90
29237;DHT22;16266;50.866;4.398;2023-03-14T08:35:05;8.60;99.90
29237;DHT22;16266;50.866;4.398;2023-03-14T08:37:32;8.60;99.90
29237;DHT22;16266;50.866;4.398;2023-03-14T08:39:58;8.50;99.90
29237;DHT22;16266;50.866;4.398;2023-03-14T08:42:23;8.40;99.90
29237;DHT22;16266;50.866;4.398;2023-03-14T08:44:51;8.40;99.90
29237;DHT22;16266;50.866;4.398;2023-03-14T08:47:17;8.30;99.90
29237;DHT22;16266;50.866;4.398;2023-03-14T08:49:42;8.10;99.90
29237;DHT22;16266;50.866;4.398;2023-03-14T08:52:08;8.10;99.90
29237;DHT22;16266;50.866;4.398;2023-03-14T08:54:34;8.20;99.90
29237;DHT22;16266;50.866;4.398;2023-03-14T08:56:59;8.20;99.90
29237;DHT22;16266;50.866;4.398;2023-03-14T08:59:25;8.10;99.90
29237;DHT22;16266;50.866;4.398;2023-03-14T09:01:50;8.10;99.90
29237;DHT22;16266;50.866;4.398;2023-03-14T09:04:16;8.00;99.90
29237;DHT22;16266;50.866;4.398;2023-03-14T09:06:42;8.00;99.90
29237;DHT22;16266;50.866;4.398;2023-03-14T09:09:08;7.90;99.90
29237;DHT22;16266;50.866;4.398;2023-03-14T09:11:33;7.90;99.90
29237;DHT22;16266;50.866;4.398;2023-03-14T09:13:59;7.80;99.90
29237;DHT22;16266;50.866;4.398;2023-03-14T09:16:26;7.80;99.90
29237;DHT22;16266;50.866;4.398;2023-03-14T09:18:51;7.70;99.90
29237;DHT22;16266;50.866;4.398;2023-03-14T09:21:21;7.70;99.90
29237;DHT22;16266;50.866;4.398;2023-03-14T09:23:46;7.70;99.90
29237;DHT22;16266;50.866;4.398;2023-03-14T09:26:14;7.80;99.90
29237;DHT22;16266;50.866;4.398;2023-03-14T09:28:39;7.80;99.90
29237;DHT22;16266;50.866;4.398;2023-03-14T09:31:07;7.80;99.90
29237;DHT22;16266;50.866;4.398;2023-03-14T09:33:34;7.80;99.90
29237;DHT22;16266;50.866;4.398;2023-03-14T09:35:59;7.80;99.90
29237;DHT22;16266;50.866;4.398;2023-03-14T09:38:25;7.90;99.90
29237;DHT22;16266;50.866;4.398;2023-03-14T09:40:53;7.90;99.90
29237;DHT22;16266;50.866;4.398;2023-03-14T09:43:19;7.90;99.90
29237;DHT22;16266;50.866;4.398;2023-03-14T09:45:48;7.90;99.90
29237;DHT22;16266;50.866;4.398;2023-03-14T09:48:17;8.00;99.90
29237;DHT22;16266;50.866;4.398;2023-03-14T09:50:51;7.90;99.90
29237;DHT22;16266;50.866;4.398;2023-03-14T09:53:21;7.90;99.90
29237;DHT22;16266;50.866;4.398;2023-03-14T09:55:50;7.90;99.90
29237;DHT22;16266;50.866;4.398;2023-03-14T09:58:19;7.90;99.90
29237;DHT22;16266;50.866;4.398;2023-03-14T10:00:46;7.90;99.90
29237;DHT22;16266;50.866;4.398;2023-03-14T10:05:38;7.80;99.90
29237;DHT22;16266;50.866;4.398;2023-03-14T10:08:04;7.90;99.90
29237;DHT22;16266;50.866;4.398;2023-03-14T10:10:31;8.30;99.90
29237;DHT22;16266;50.866;4.398;2023-03-14T10:15:39;8.40;99.90
29237;DHT22;16266;50.866;4.398;2023-03-14T10:18:11;8.40;99.90
29237;DHT22;16266;50.866;4.398;2023-03-14T10:20:45;8.50;99.90
29237;DHT22;16266;50.866;4.398;2023-03-14T10:25:43;8.20;99.90
29237;DHT22;16266;50.866;4.398;2023-03-14T10:30:50;8.20;99.90
29237;DHT22;16266;50.866;4.398;2023-03-14T10:33:25;8.10;99.90
29237;DHT22;16266;50.866;4.398;2023-03-14T10:36:01;8.00;99.90
29237;DHT22;16266;50.866;4.398;2023-03-14T10:38:29;7.80;99.90
29237;DHT22;16266;50.866;4.398;2023-03-14T10:40:55;7.90;99.90
29237;DHT22;16266;50.866;4.398;2023-03-14T10:43:32;8.00;99.90
29237;DHT22;16266;50.866;4.398;2023-03-14T10:46:02;8.00;99.90
29237;DHT22;16266;50.866;4.398;2023-03-14T10:48:36;8.00;99.90
29237;DHT22;16266;50.866;4.398;2023-03-14T10:51:11;8.00;99.90
29237;DHT22;16266;50.866;4.398;2023-03-14T10:54:21;7.90;99.90
29237;DHT22;16266;50.866;4.398;2023-03-14T10:56:57;7.80;99.90
29237;DHT22;16266;50.866;4.398;2023-03-14T10:59:23;7.90;99.90
29237;DHT22;16266;50.866;4.398;2023-03-14T11:02:17;7.80;99.90
29237;DHT22;16266;50.866;4.398;2023-03-14T11:07:42;7.80;99.90
29237;DHT22;16266;50.866;4.398;2023-03-14T11:15:34;7.80;99.90
29237;DHT22;16266;50.866;4.398;2023-03-14T11:32:12;7.20;99.90
29237;DHT22;16266;50.866;4.398;2023-03-14T11:34:54;7.30;99.90
29237;DHT22;16266;50.866;4.398;2023-03-14T11:39:58;7.30;99.90
29237;DHT22;16266;50.866;4.398;2023-03-14T11:42:26;7.50;99.90
29237;DHT22;16266;50.866;4.398;2023-03-14T11:44:54;7.60;99.90
29237;DHT22;16266;50.866;4.398;2023-03-14T11:47:40;7.60;99.90
29237;DHT22;16266;50.866;4.398;2023-03-14T11:50:27;7.60;99.90
29237;DHT22;16266;50.866;4.398;2023-03-14T11:53:40;7.50;99.90
29237;DHT22;16266;50.866;4.398;2023-03-14T11:56:06;7.40;99.90
29237;DHT22;16266;50.866;4.398;2023-03-14T11:58:38;7.30;99.90
29237;DHT22;16266;50.866;4.398;2023-03-14T12:01:10;7.40;99.90
29237;DHT22;16266;50.866;4.398;2023-03-14T12:04:01;7.70;99.90
29237;DHT22;16266;50.866;4.398;2023-03-14T12:09:04;8.00;99.90
29237;DHT22;16266;50.866;4.398;2023-03-14T12:11:49;8.10;99.90
29237;DHT22;16266;50.866;4.398;2023-03-14T12:14:27;8.20;99.90
29237;DHT22;16266;50.866;4.398;2023-03-14T12:17:05;8.30;99.90
29237;DHT22;16266;50.866;4.398;2023-03-14T12:19:34;8.40;99.90
29237;DHT22;16266;50.866;4.398;2023-03-14T12:22:20;8.20;99.90
29237;DHT22;16266;50.866;4.398;2023-03-14T12:24:51;8.30;99.90
29237;DHT22;16266;50.866;4.398;2023-03-14T12:27:45;8.30;99.90
29237;DHT22;16266;50.866;4.398;2023-03-14T12:35:45;8.20;99.90
29237;DHT22;16266;50.866;4.398;2023-03-14T12:43:34;7.70;99.90
29237;DHT22;16266;50.866;4.398;2023-03-14T12:46:20;7.70;99.90
29237;DHT22;16266;50.866;4.398;2023-03-14T12:49:05;7.60;99.90
29237;DHT22;16266;50.866;4.398;2023-03-14T12:51:38;7.50;99.90
29237;DHT22;16266;50.866;4.398;2023-03-14T13:00:13;7.80;99.90
29237;DHT22;16266;50.866;4.398;2023-03-14T13:02:28;8.00;99.90
29237;DHT22;16266;50.866;4.398;2023-03-14T13:05:42;8.10;99.90
29237;DHT22;16266;50.866;4.398;2023-03-14T13:10:24;8.60;99.90
29237;DHT22;16266;50.866;4.398;2023-03-14T13:12:54;8.80;99.90
29237;DHT22;16266;50.866;4.398;2023-03-14T13:15:31;8.70;99.90
29237;DHT22;16266;50.866;4.398;2023-03-14T13:18:23;8.80;99.90
29237;DHT22;16266;50.866;4.398;2023-03-14T13:20:56;8.80;99.90
29237;DHT22;16266;50.866;4.398;2023-03-14T13:23:29;8.60;99.90
29237;DHT22;16266;50.866;4.398;2023-03-14T13:25:56;8.40;99.90
29237;DHT22;16266;50.866;4.398;2023-03-14T13:28:22;8.10;99.90
29237;DHT22;16266;50.866;4.398;2023-03-14T13:30:49;7.80;99.90
29237;DHT22;16266;50.866;4.398;2023-03-14T13:33:21;7.70;99.90
29237;DHT22;16266;50.866;4.398;2023-03-14T13:35:55;7.80;99.90
29237;DHT22;16266;50.866;4.398;2023-03-14T13:38:23;8.00;99.90
29237;DHT22;16266;50.866;4.398;2023-03-14T13:40:51;8.40;99.90
29237;DHT22;16266;50.866;4.398;2023-03-14T13:46:16;8.90;99.90
29237;DHT22;16266;50.866;4.398;2023-03-14T13:48:45;9.10;99.90
29237;DHT22;16266;50.866;4.398;2023-03-14T13:51:14;9.10;99.90
29237;DHT22;16266;50.866;4.398;2023-03-14T13:53:48;8.80;99.90
29237;DHT22;16266;50.866;4.398;2023-03-14T13:56:21;8.60;99.90
29237;DHT22;16266;50.866;4.398;2023-03-14T13:58:48;8.70;99.90
29237;DHT22;16266;50.866;4.398;2023-03-14T14:01:33;9.00;99.90
29237;DHT22;16266;50.866;4.398;2023-03-14T14:04:15;9.30;99.90
29237;DHT22;16266;50.866;4.398;2023-03-14T14:06:46;9.30;99.90
29237;DHT22;16266;50.866;4.398;2023-03-14T14:09:17;9.30;99.90
29237;DHT22;16266;50.866;4.398;2023-03-14T14:14:31;10.00;99.90
29237;DHT22;16266;50.866;4.398;2023-03-14T14:16:58;10.20;99.90
29237;DHT22;16266;50.866;4.398;2023-03-14T14:19:28;10.20;99.90
29237;DHT22;16266;50.866;4.398;2023-03-14T14:21:55;9.90;99.90
29237;DHT22;16266;50.866;4.398;2023-03-14T14:24:23;9.50;99.90
29237;DHT22;16266;50.866;4.398;2023-03-14T14:26:54;8.90;99.90
29237;DHT22;16266;50.866;4.398;2023-03-14T14:32:13;8.00;99.90
29237;DHT22;16266;50.866;4.398;2023-03-14T14:34:41;7.90;99.90
29237;DHT22;16266;50.866;4.398;2023-03-14T14:39:46;7.80;99.90
29237;DHT22;16266;50.866;4.398;2023-03-14T14:42:16;7.90;99.90
29237;DHT22;16266;50.866;4.398;2023-03-14T14:44:43;7.80;99.90
29237;DHT22;16266;50.866;4.398;2023-03-14T14:47:14;7.60;99.90
29237;DHT22;16266;50.866;4.398;2023-03-14T14:49:41;7.20;99.90
29237;DHT22;16266;50.866;4.398;2023-03-14T14:52:16;6.80;99.90
29237;DHT22;16266;50.866;4.398;2023-03-14T14:57:25;6.40;99.90
29237;DHT22;16266;50.866;4.398;2023-03-14T14:59:55;6.20;99.90
29237;DHT22;16266;50.866;4.398;2023-03-14T15:04:53;6.10;99.90
29237;DHT22;16266;50.866;4.398;2023-03-14T15:07:18;6.30;99.90
29237;DHT22;16266;50.866;4.398;2023-03-14T15:09:45;6.30;99.90
29237;DHT22;16266;50.866;4.398;2023-03-14T15:12:10;6.40;99.90
29237;DHT22;16266;50.866;4.398;2023-03-14T15:14:36;6.60;99.90
29237;DHT22;16266;50.866;4.398;2023-03-14T15:17:02;7.00;99.90
29237;DHT22;16266;50.866;4.398;2023-03-14T15:19:28;7.30;99.90
29237;DHT22;16266;50.866;4.398;2023-03-14T15:21:58;7.70;99.90
29237;DHT22;16266;50.866;4.398;2023-03-14T15:24:24;7.80;99.90
29237;DHT22;16266;50.866;4.398;2023-03-14T15:26:50;8.00;99.90
29237;DHT22;16266;50.866;4.398;2023-03-14T15:29:16;8.10;99.90
29237;DHT22;16266;50.866;4.398;2023-03-14T15:31:42;8.40;99.90
29237;DHT22;16266;50.866;4.398;2023-03-14T15:34:10;8.70;99.90
29237;DHT22;16266;50.866;4.398;2023-03-14T15:36:37;8.90;99.90
29237;DHT22;16266;50.866;4.398;2023-03-14T15:39:05;9.00;99.90
29237;DHT22;16266;50.866;4.398;2023-03-14T15:41:31;9.10;99.90
29237;DHT22;16266;50.866;4.398;2023-03-14T15:43:57;9.10;99.90
29237;DHT22;16266;50.866;4.398;2023-03-14T15:46:22;9.00;99.90
29237;DHT22;16266;50.866;4.398;2023-03-14T15:48:50;8.90;99.90
29237;DHT22;16266;50.866;4.398;2023-03-14T15:51:16;9.00;99.90
29237;DHT22;16266;50.866;4.398;2023-03-14T15:53:42;9.00;99.90
29237;DHT22;16266;50.866;4.398;2023-03-14T15:56:16;9.00;99.90
29237;DHT22;16266;50.866;4.398;2023-03-14T15:58:43;8.90;99.90
29237;DHT22;16266;50.866;4.398;2023-03-14T16:01:12;8.90;99.90
29237;DHT22;16266;50.866;4.398;2023-03-14T16:03:38;8.90;99.90
29237;DHT22;16266;50.866;4.398;2023-03-14T16:06:04;8.80;99.90
29237;DHT22;16266;50.866;4.398;2023-03-14T16:08:30;8.70;99.90
29237;DHT22;16266;50.866;4.398;2023-03-14T16:10:58;8.50;99.90
29237;DHT22;16266;50.866;4.398;2023-03-14T16:13:24;8.40;99.90
29237;DHT22;16266;50.866;4.398;2023-03-14T16:15:57;8.50;99.90
29237;DHT22;16266;50.866;4.398;2023-03-14T16:18:24;8.20;99.90
29237;DHT22;16266;50.866;4.398;2023-03-14T16:20:54;8.00;99.90
29237;DHT22;16266;50.866;4.398;2023-03-14T16:23:20;7.80;99.90
29237;DHT22;16266;50.866;4.398;2023-03-14T16:25:45;7.80;99.90
29237;DHT22;16266;50.866;4.398;2023-03-14T16:28:11;7.80;99.90
29237;DHT22;16266;50.866;4.398;2023-03-14T16:30:37;7.60;99.90
29237;DHT22;16266;50.866;4.398;2023-03-14T16:33:02;7.60;99.90
29237;DHT22;16266;50.866;4.398;2023-03-14T16:35:32;7.50;99.90
29237;DHT22;16266;50.866;4.398;2023-03-14T16:37:59;7.50;99.90
29237;DHT22;16266;50.866;4.398;2023-03-14T16:40:25;7.40;99.90
29237;DHT22;16266;50.866;4.398;2023-03-14T16:42:51;7.40;99.90
29237;DHT22;16266;50.866;4.398;2023-03-14T16:45:18;7.30;99.90
29237;DHT22;16266;50.866;4.398;2023-03-14T16:47:44;7.30;99.90
29237;DHT22;16266;50.866;4.398;2023-03-14T16:50:10;7.30;99.90
29237;DHT22;16266;50.866;4.398;2023-03-14T16:52:36;7.20;99.90
29237;DHT22;16266;50.866;4.398;2023-03-14T16:55:01;7.10;99.90
29237;DHT22;16266;50.866;4.398;2023-03-14T16:57:28;7.10;99.90
29237;DHT22;16266;50.866;4.398;2023-03-14T16:59:55;7.20;99.90
29237;DHT22;16266;50.866;4.398;2023-03-14T17:02:20;7.10;99.90
29237;DHT22;16266;50.866;4.398;2023-03-14T17:04:46;7.00;99.90
29237;DHT22;16266;50.866;4.398;2023-03-14T17:07:12;7.00;99.90
29237;DHT22;16266;50.866;4.398;2023-03-14T17:09:37;7.00;99.90
29237;DHT22;16266;50.866;4.398;2023-03-14T17:12:04;7.00;99.90